sensor_id;sensor_type;location;lat;lon;timestamp;temperature;humidity
18779;DHT22;9518;51.720;14.384;2024-02-23T00:00:24;9.80;99.90
18779;DHT22;9518;51.720;14.384;2024-02-23T00:02:51;9.80;99.90
18779;DHT22;9518;51.720;14.384;2024-02-23T00:05:19;9.80;99.90
18779;DHT22;9518;51.720;14.384;2024-02-23T00:07:46;9.80;99.90
18779;DHT22;9518;51.720;14.384;2024-02-23T00:10:15;9.80;99.90
18779;DHT22;9518;51.720;14.384;2024-02-23T00:12:43;9.90;99.90
18779;DHT22;9518;51.720;14.384;2024-02-23T00:15:10;9.90;99.90
18779;DHT22;9518;51.720;14.384;2024-02-23T00:17:37;9.90;99.90
18779;DHT22;9518;51.720;14.384;2024-02-23T00:20:08;10.00;99.90
18779;DHT22;9518;51.720;14.384;2024-02-23T00:22:36;10.10;99.90
18779;DHT22;9518;51.720;14.384;2024-02-23T00:25:05;10.20;99.90
18779;DHT22;9518;51.720;14.384;2024-02-23T00:27:36;10.30;99.90
18779;DHT22;9518;51.720;14.384;2024-02-23T00:30:06;10.20;99.90
18779;DHT22;9518;51.720;14.384;2024-02-23T00:32:33;10.30;99.90
18779;DHT22;9518;51.720;14.384;2024-02-23T00:35:02;10.40;99.90
18779;DHT22;9518;51.720;14.384;2024-02-23T00:37:29;10.40;99.90
18779;DHT22;9518;51.720;14.384;2024-02-23T00:40:00;10.40;99.90
18779;DHT22;9518;51.720;14.384;2024-02-23T00:42:29;10.50;99.90
18779;DHT22;9518;51.720;14.384;2024-02-23T00:44:58;10.50;99.90
18779;DHT22;9518;51.720;14.384;2024-02-23T00:47:27;10.40;99.90
18779;DHT22;9518;51.720;14.384;2024-02-23T00:49:54;10.40;99.90
18779;DHT22;9518;51.720;14.384;2024-02-23T00:52:21;10.60;99.90
18779;DHT22;9518;51.720;14.384;2024-02-23T00:54:48;10.60;99.90
18779;DHT22;9518;51.720;14.384;2024-02-23T00:57:15;10.60;99.90
18779;DHT22;9518;51.720;14.384;2024-02-23T00:59:45;10.50;99.90
18779;DHT22;9518;51.720;14.384;2024-02-23T01:02:14;10.50;99.90
18779;DHT22;9518;51.720;14.384;2024-02-23T01:04:41;10.50;99.90
18779;DHT22;9518;51.720;14.384;2024-02-23T01:07:08;10.50;99.90
18779;DHT22;9518;51.720;14.384;2024-02-23T01:09:35;10.50;99.90
18779;DHT22;9518;51.720;14.384;2024-02-23T01:12:02;10.40;99.90
18779;DHT22;9518;51.720;14.384;2024-02-23T01:14:29;10.50;99.90
18779;DHT22;9518;51.720;14.384;2024-02-23T01:16:56;10.40;99.90
18779;DHT22;9518;51.720;14.384;2024-02-23T01:19:25;10.40;99.90
18779;DHT22;9518;51.720;14.384;2024-02-23T01:21:52;10.30;99.90
18779;DHT22;9518;51.720;14.384;2024-02-23T01:24:25;10.40;99.90
18779;DHT22;9518;51.720;14.384;2024-02-23T01:26:53;10.30;99.90
18779;DHT22;9518;51.720;14.384;2024-02-23T01:29:21;10.30;99.90
18779;DHT22;9518;51.720;14.384;2024-02-23T01:31:49;10.10;99.90
18779;DHT22;9518;51.720;14.384;2024-02-23T01:34:17;10.10;99.90
18779;DHT22;9518;51.720;14.384;2024-02-23T01:36:45;10.20;99.90
18779;DHT22;9518;51.720;14.384;2024-02-23T01:39:13;10.10;99.90
18779;DHT22;9518;51.720;14.384;2024-02-23T01:41:40;10.20;99.90
18779;DHT22;9518;51.720;14.384;2024-02-23T01:44:08;10.20;99.90
18779;DHT22;9518;51.720;14.384;2024-02-23T01:46:36;10.30;99.90
18779;DHT22;9518;51.720;14.384;2024-02-23T01:49:04;10.30;99.90
18779;DHT22;9518;51.720;14.384;2024-02-23T01:51:33;10.30;99.90
18779;DHT22;9518;51.720;14.384;2024-02-23T01:54:02;10.30;99.90
18779;DHT22;9518;51.720;14.384;2024-02-23T01:56:31;10.20;99.90
18779;DHT22;9518;51.720;14.384;2024-02-23T01:58:59;10.10;99.90
18779;DHT22;9518;51.720;14.384;2024-02-23T02:01:29;10.10;99.90
18779;DHT22;9518;51.720;14.384;2024-02-23T02:03:57;10.20;99.90
18779;DHT22;9518;51.720;14.384;2024-02-23T02:06:24;10.10;99.90
18779;DHT22;9518;51.720;14.384;2024-02-23T02:08:53;10.20;99.90
18779;DHT22;9518;51.720;14.384;2024-02-23T02:11:22;10.30;99.90
18779;DHT22;9518;51.720;14.384;2024-02-23T02:13:49;10.30;99.90
18779;DHT22;9518;51.720;14.384;2024-02-23T02:16:19;10.30;99.90
18779;DHT22;9518;51.720;14.384;2024-02-23T02:18:46;10.40;99.90
18779;DHT22;9518;51.720;14.384;2024-02-23T02:21:15;10.50;99.90
18779;DHT22;9518;51.720;14.384;2024-02-23T02:23:42;10.60;99.90
18779;DHT22;9518;51.720;14.384;2024-02-23T02:26:10;10.70;99.90
18779;DHT22;9518;51.720;14.384;2024-02-23T02:28:39;11.00;99.90
18779;DHT22;9518;51.720;14.384;2024-02-23T02:31:06;11.30;99.90
18779;DHT22;9518;51.720;14.384;2024-02-23T02:33:33;11.40;99.90
18779;DHT22;9518;51.720;14.384;2024-02-23T02:36:00;11.50;99.90
18779;DHT22;9518;51.720;14.384;2024-02-23T02:38:27;11.60;99.90
18779;DHT22;9518;51.720;14.384;2024-02-23T02:40:54;11.70;99.90
18779;DHT22;9518;51.720;14.384;2024-02-23T02:43:22;11.70;99.90
18779;DHT22;9518;51.720;14.384;2024-02-23T02:45:51;11.70;99.90
18779;DHT22;9518;51.720;14.384;2024-02-23T02:48:18;11.80;99.90
18779;DHT22;9518;51.720;14.384;2024-02-23T02:50:45;11.70;99.90
18779;DHT22;9518;51.720;14.384;2024-02-23T02:53:12;11.80;99.90
18779;DHT22;9518;51.720;14.384;2024-02-23T02:55:43;11.80;99.90
18779;DHT22;9518;51.720;14.384;2024-02-23T02:58:11;11.90;99.90
18779;DHT22;9518;51.720;14.384;2024-02-23T03:00:38;12.00;99.90
18779;DHT22;9518;51.720;14.384;2024-02-23T03:03:07;12.00;99.90
18779;DHT22;9518;51.720;14.384;2024-02-23T03:05:34;12.00;99.90
18779;DHT22;9518;51.720;14.384;2024-02-23T03:08:02;11.90;99.90
18779;DHT22;9518;51.720;14.384;2024-02-23T03:10:31;11.70;99.90
18779;DHT22;9518;51.720;14.384;2024-02-23T03:12:58;11.70;99.90
18779;DHT22;9518;51.720;14.384;2024-02-23T03:15:26;11.70;99.90
18779;DHT22;9518;51.720;14.384;2024-02-23T03:17:55;11.70;99.90
18779;DHT22;9518;51.720;14.384;2024-02-23T03:20:28;11.70;99.90
18779;DHT22;9518;51.720;14.384;2024-02-23T03:22:56;11.70;99.90
18779;DHT22;9518;51.720;14.384;2024-02-23T03:25:23;11.80;99.90
18779;DHT22;9518;51.720;14.384;2024-02-23T03:27:50;11.70;99.90
18779;DHT22;9518;51.720;14.384;2024-02-23T03:30:17;11.70;99.90
18779;DHT22;9518;51.720;14.384;2024-02-23T03:32:45;11.60;99.90
18779;DHT22;9518;51.720;14.384;2024-02-23T03:35:12;11.60;99.90
18779;DHT22;9518;51.720;14.384;2024-02-23T03:37:44;11.70;99.20
18779;DHT22;9518;51.720;14.384;2024-02-23T03:40:13;11.70;99.10
18779;DHT22;9518;51.720;14.384;2024-02-23T03:42:39;11.60;99.80
18779;DHT22;9518;51.720;14.384;2024-02-23T03:45:06;11.50;99.90
18779;DHT22;9518;51.720;14.384;2024-02-23T03:47:35;11.40;99.90
18779;DHT22;9518;51.720;14.384;2024-02-23T03:50:03;11.50;99.90
18779;DHT22;9518;51.720;14.384;2024-02-23T03:52:30;11.50;99.70
18779;DHT22;9518;51.720;14.384;2024-02-23T03:54:58;11.50;99.00
18779;DHT22;9518;51.720;14.384;2024-02-23T03:57:25;11.60;98.60
18779;DHT22;9518;51.720;14.384;2024-02-23T03:59:55;11.50;98.60
18779;DHT22;9518;51.720;14.384;2024-02-23T04:02:22;11.50;98.30
18779;DHT22;9518;51.720;14.384;2024-02-23T04:04:50;11.40;98.70
18779;DHT22;9518;51.720;14.384;2024-02-23T04:07:17;11.30;98.30
18779;DHT22;9518;51.720;14.384;2024-02-23T04:09:43;11.30;98.30
18779;DHT22;9518;51.720;14.384;2024-02-23T04:12:12;11.20;98.80
18779;DHT22;9518;51.720;14.384;2024-02-23T04:14:39;11.10;99.20
18779;DHT22;9518;51.720;14.384;2024-02-23T04:17:06;11.10;99.60
18779;DHT22;9518;51.720;14.384;2024-02-23T04:19:33;11.10;99.90
18779;DHT22;9518;51.720;14.384;2024-02-23T04:22:00;11.00;99.90
18779;DHT22;9518;51.720;14.384;2024-02-23T04:24:27;10.80;99.90
18779;DHT22;9518;51.720;14.384;2024-02-23T04:26:54;10.70;99.90
18779;DHT22;9518;51.720;14.384;2024-02-23T04:29:23;10.70;99.90
18779;DHT22;9518;51.720;14.384;2024-02-23T04:31:50;10.60;99.90
18779;DHT22;9518;51.720;14.384;2024-02-23T04:34:17;10.50;99.90
18779;DHT22;9518;51.720;14.384;2024-02-23T04:36:44;10.50;99.90
18779;DHT22;9518;51.720;14.384;2024-02-23T04:39:13;10.60;99.90
18779;DHT22;9518;51.720;14.384;2024-02-23T04:41:40;10.70;99.00
18779;DHT22;9518;51.720;14.384;2024-02-23T04:44:07;10.70;98.30
18779;DHT22;9518;51.720;14.384;2024-02-23T04:46:36;10.70;98.40
18779;DHT22;9518;51.720;14.384;2024-02-23T04:49:03;10.60;97.20
18779;DHT22;9518;51.720;14.384;2024-02-23T04:51:30;10.50;96.90
18779;DHT22;9518;51.720;14.384;2024-02-23T04:53:57;10.50;96.50
18779;DHT22;9518;51.720;14.384;2024-02-23T04:56:26;10.50;95.40
18779;DHT22;9518;51.720;14.384;2024-02-23T04:58:58;10.60;94.90
18779;DHT22;9518;51.720;14.384;2024-02-23T05:01:26;10.60;94.70
18779;DHT22;9518;51.720;14.384;2024-02-23T05:03:57;10.60;93.40
18779;DHT22;9518;51.720;14.384;2024-02-23T05:06:24;10.60;91.40
18779;DHT22;9518;51.720;14.384;2024-02-23T05:08:51;10.60;90.10
18779;DHT22;9518;51.720;14.384;2024-02-23T05:11:20;10.60;89.80
18779;DHT22;9518;51.720;14.384;2024-02-23T05:13:48;10.40;90.00
18779;DHT22;9518;51.720;14.384;2024-02-23T05:16:17;10.30;90.60
18779;DHT22;9518;51.720;14.384;2024-02-23T05:18:45;10.10;89.80
18779;DHT22;9518;51.720;14.384;2024-02-23T05:21:14;10.00;90.00
18779;DHT22;9518;51.720;14.384;2024-02-23T05:23:44;10.00;86.90
18779;DHT22;9518;51.720;14.384;2024-02-23T05:26:13;9.90;87.40
18779;DHT22;9518;51.720;14.384;2024-02-23T05:28:40;9.90;85.90
18779;DHT22;9518;51.720;14.384;2024-02-23T05:31:09;9.80;87.00
18779;DHT22;9518;51.720;14.384;2024-02-23T05:33:36;9.70;87.20
18779;DHT22;9518;51.720;14.384;2024-02-23T05:36:07;9.60;87.40
18779;DHT22;9518;51.720;14.384;2024-02-23T05:38:36;9.60;85.50
18779;DHT22;9518;51.720;14.384;2024-02-23T05:41:04;9.50;86.50
18779;DHT22;9518;51.720;14.384;2024-02-23T05:43:31;9.50;86.00
18779;DHT22;9518;51.720;14.384;2024-02-23T05:45:58;9.50;85.30
18779;DHT22;9518;51.720;14.384;2024-02-23T05:48:25;9.40;86.40
18779;DHT22;9518;51.720;14.384;2024-02-23T05:50:52;9.30;87.20
18779;DHT22;9518;51.720;14.384;2024-02-23T05:53:19;9.20;88.50
18779;DHT22;9518;51.720;14.384;2024-02-23T05:55:47;9.20;87.60
18779;DHT22;9518;51.720;14.384;2024-02-23T05:58:14;9.20;88.80
18779;DHT22;9518;51.720;14.384;2024-02-23T06:00:42;9.20;88.30
18779;DHT22;9518;51.720;14.384;2024-02-23T06:03:09;9.20;88.60
18779;DHT22;9518;51.720;14.384;2024-02-23T06:05:38;9.20;88.30
18779;DHT22;9518;51.720;14.384;2024-02-23T06:08:06;9.10;88.80
18779;DHT22;9518;51.720;14.384;2024-02-23T06:10:33;9.10;88.10
18779;DHT22;9518;51.720;14.384;2024-02-23T06:13:02;9.10;87.60
18779;DHT22;9518;51.720;14.384;2024-02-23T06:15:29;9.10;87.40
18779;DHT22;9518;51.720;14.384;2024-02-23T06:17:56;9.10;87.20
18779;DHT22;9518;51.720;14.384;2024-02-23T06:20:23;9.00;89.20
18779;DHT22;9518;51.720;14.384;2024-02-23T06:22:50;8.90;87.90
18779;DHT22;9518;51.720;14.384;2024-02-23T06:25:17;9.00;87.10
18779;DHT22;9518;51.720;14.384;2024-02-23T06:27:44;9.00;88.30
18779;DHT22;9518;51.720;14.384;2024-02-23T06:30:13;9.00;87.10
18779;DHT22;9518;51.720;14.384;2024-02-23T06:32:40;9.00;87.30
18779;DHT22;9518;51.720;14.384;2024-02-23T06:35:08;9.00;88.20
18779;DHT22;9518;51.720;14.384;2024-02-23T06:37:37;8.90;88.10
18779;DHT22;9518;51.720;14.384;2024-02-23T06:40:05;8.90;88.80
18779;DHT22;9518;51.720;14.384;2024-02-23T06:42:32;8.90;88.20
18779;DHT22;9518;51.720;14.384;2024-02-23T06:45:00;8.90;88.00
18779;DHT22;9518;51.720;14.384;2024-02-23T06:47:29;8.80;87.50
18779;DHT22;9518;51.720;14.384;2024-02-23T06:49:56;8.80;88.90
18779;DHT22;9518;51.720;14.384;2024-02-23T06:52:24;8.80;87.70
18779;DHT22;9518;51.720;14.384;2024-02-23T06:54:51;8.80;87.50
18779;DHT22;9518;51.720;14.384;2024-02-23T06:57:20;8.80;87.50
18779;DHT22;9518;51.720;14.384;2024-02-23T06:59:51;8.70;88.80
18779;DHT22;9518;51.720;14.384;2024-02-23T07:02:18;8.70;89.90
18779;DHT22;9518;51.720;14.384;2024-02-23T07:04:49;8.60;89.80
18779;DHT22;9518;51.720;14.384;2024-02-23T07:07:17;8.60;90.20
18779;DHT22;9518;51.720;14.384;2024-02-23T07:09:44;8.60;89.90
18779;DHT22;9518;51.720;14.384;2024-02-23T07:12:12;8.60;89.70
18779;DHT22;9518;51.720;14.384;2024-02-23T07:14:39;8.60;90.50
18779;DHT22;9518;51.720;14.384;2024-02-23T07:17:06;8.70;90.60
18779;DHT22;9518;51.720;14.384;2024-02-23T07:19:36;8.70;90.80
18779;DHT22;9518;51.720;14.384;2024-02-23T07:22:06;8.70;91.10
18779;DHT22;9518;51.720;14.384;2024-02-23T07:24:33;8.70;90.80
18779;DHT22;9518;51.720;14.384;2024-02-23T07:26:59;8.80;90.20
18779;DHT22;9518;51.720;14.384;2024-02-23T07:29:26;9.00;90.30
18779;DHT22;9518;51.720;14.384;2024-02-23T07:31:53;9.00;90.40
18779;DHT22;9518;51.720;14.384;2024-02-23T07:34:21;9.10;90.20
18779;DHT22;9518;51.720;14.384;2024-02-23T07:36:51;9.20;90.60
18779;DHT22;9518;51.720;14.384;2024-02-23T07:39:27;9.30;90.00
18779;DHT22;9518;51.720;14.384;2024-02-23T07:41:54;9.40;90.80
18779;DHT22;9518;51.720;14.384;2024-02-23T07:44:24;9.40;90.80
18779;DHT22;9518;51.720;14.384;2024-02-23T07:46:52;9.50;90.90
18779;DHT22;9518;51.720;14.384;2024-02-23T07:49:20;9.70;90.50
18779;DHT22;9518;51.720;14.384;2024-02-23T07:51:47;9.80;90.10
18779;DHT22;9518;51.720;14.384;2024-02-23T07:54:15;10.00;90.50
18779;DHT22;9518;51.720;14.384;2024-02-23T07:56:43;10.20;88.70
18779;DHT22;9518;51.720;14.384;2024-02-23T07:59:10;10.20;89.20
18779;DHT22;9518;51.720;14.384;2024-02-23T08:01:37;10.20;87.60
18779;DHT22;9518;51.720;14.384;2024-02-23T08:04:05;10.10;88.30
18779;DHT22;9518;51.720;14.384;2024-02-23T08:06:32;10.10;89.10
18779;DHT22;9518;51.720;14.384;2024-02-23T08:09:00;10.20;89.50
18779;DHT22;9518;51.720;14.384;2024-02-23T08:11:27;10.10;88.10
18779;DHT22;9518;51.720;14.384;2024-02-23T08:13:56;10.00;89.50
18779;DHT22;9518;51.720;14.384;2024-02-23T08:16:23;10.00;88.20
18779;DHT22;9518;51.720;14.384;2024-02-23T08:18:51;9.90;89.30
18779;DHT22;9518;51.720;14.384;2024-02-23T08:21:18;9.90;89.30
18779;DHT22;9518;51.720;14.384;2024-02-23T08:23:46;9.90;89.40
18779;DHT22;9518;51.720;14.384;2024-02-23T08:26:13;10.00;89.30
18779;DHT22;9518;51.720;14.384;2024-02-23T08:28:40;10.00;88.10
18779;DHT22;9518;51.720;14.384;2024-02-23T08:31:09;10.00;88.60
18779;DHT22;9518;51.720;14.384;2024-02-23T08:33:36;9.90;90.40
18779;DHT22;9518;51.720;14.384;2024-02-23T08:36:04;9.90;89.80
18779;DHT22;9518;51.720;14.384;2024-02-23T08:38:32;10.00;90.30
18779;DHT22;9518;51.720;14.384;2024-02-23T08:40:59;10.10;87.10
18779;DHT22;9518;51.720;14.384;2024-02-23T08:43:26;10.10;86.90
18779;DHT22;9518;51.720;14.384;2024-02-23T08:45:53;10.00;87.30
18779;DHT22;9518;51.720;14.384;2024-02-23T08:48:22;10.00;88.10
18779;DHT22;9518;51.720;14.384;2024-02-23T08:50:49;9.90;89.20
18779;DHT22;9518;51.720;14.384;2024-02-23T08:53:16;9.90;88.90
18779;DHT22;9518;51.720;14.384;2024-02-23T08:55:43;9.70;89.00
18779;DHT22;9518;51.720;14.384;2024-02-23T08:58:11;9.60;90.40
18779;DHT22;9518;51.720;14.384;2024-02-23T09:00:38;9.50;89.40
18779;DHT22;9518;51.720;14.384;2024-02-23T09:03:05;9.30;89.10
18779;DHT22;9518;51.720;14.384;2024-02-23T09:05:34;9.30;90.00
18779;DHT22;9518;51.720;14.384;2024-02-23T09:08:01;9.20;89.30
18779;DHT22;9518;51.720;14.384;2024-02-23T09:10:28;9.10;90.30
18779;DHT22;9518;51.720;14.384;2024-02-23T09:12:55;9.10;90.20
18779;DHT22;9518;51.720;14.384;2024-02-23T09:15:24;8.90;88.70
18779;DHT22;9518;51.720;14.384;2024-02-23T09:17:51;8.90;89.00
18779;DHT22;9518;51.720;14.384;2024-02-23T09:20:20;8.90;89.40
18779;DHT22;9518;51.720;14.384;2024-02-23T09:22:49;8.90;88.90
18779;DHT22;9518;51.720;14.384;2024-02-23T09:25:16;9.00;88.80
18779;DHT22;9518;51.720;14.384;2024-02-23T09:27:43;9.00;88.40
18779;DHT22;9518;51.720;14.384;2024-02-23T09:30:12;8.90;88.10
18779;DHT22;9518;51.720;14.384;2024-02-23T09:32:39;8.90;86.60
18779;DHT22;9518;51.720;14.384;2024-02-23T09:35:10;8.80;86.50
18779;DHT22;9518;51.720;14.384;2024-02-23T09:37:37;8.80;87.70
18779;DHT22;9518;51.720;14.384;2024-02-23T09:40:07;8.80;88.00
18779;DHT22;9518;51.720;14.384;2024-02-23T09:42:34;8.80;86.70
18779;DHT22;9518;51.720;14.384;2024-02-23T09:45:05;9.00;86.60
18779;DHT22;9518;51.720;14.384;2024-02-23T09:47:41;9.20;87.60
18779;DHT22;9518;51.720;14.384;2024-02-23T09:50:10;9.30;87.70
18779;DHT22;9518;51.720;14.384;2024-02-23T09:52:37;9.40;87.10
18779;DHT22;9518;51.720;14.384;2024-02-23T09:55:09;9.50;87.00
18779;DHT22;9518;51.720;14.384;2024-02-23T09:57:36;9.50;85.90
18779;DHT22;9518;51.720;14.384;2024-02-23T10:00:04;9.70;87.40
18779;DHT22;9518;51.720;14.384;2024-02-23T10:02:32;9.80;85.50
18779;DHT22;9518;51.720;14.384;2024-02-23T10:05:00;9.90;83.70
18779;DHT22;9518;51.720;14.384;2024-02-23T10:07:28;10.20;83.50
18779;DHT22;9518;51.720;14.384;2024-02-23T10:09:55;10.40;79.10
18779;DHT22;9518;51.720;14.384;2024-02-23T10:12:24;10.30;79.40
18779;DHT22;9518;51.720;14.384;2024-02-23T10:14:51;10.40;79.80
18779;DHT22;9518;51.720;14.384;2024-02-23T10:17:20;10.30;79.00
18779;DHT22;9518;51.720;14.384;2024-02-23T10:19:47;10.30;79.00
18779;DHT22;9518;51.720;14.384;2024-02-23T10:22:14;10.30;79.70
18779;DHT22;9518;51.720;14.384;2024-02-23T10:24:42;10.50;77.50
18779;DHT22;9518;51.720;14.384;2024-02-23T10:27:09;10.50;77.50
18779;DHT22;9518;51.720;14.384;2024-02-23T10:29:38;10.40;77.80
18779;DHT22;9518;51.720;14.384;2024-02-23T10:32:06;10.20;77.50
18779;DHT22;9518;51.720;14.384;2024-02-23T10:34:35;10.10;79.50
18779;DHT22;9518;51.720;14.384;2024-02-23T10:37:05;9.90;79.90
18779;DHT22;9518;51.720;14.384;2024-02-23T10:39:36;9.90;82.20
18779;DHT22;9518;51.720;14.384;2024-02-23T10:42:04;10.00;80.30
18779;DHT22;9518;51.720;14.384;2024-02-23T10:44:35;10.10;81.30
18779;DHT22;9518;51.720;14.384;2024-02-23T10:47:04;10.00;80.60
18779;DHT22;9518;51.720;14.384;2024-02-23T10:49:33;9.80;77.90
18779;DHT22;9518;51.720;14.384;2024-02-23T10:52:02;9.60;77.80
18779;DHT22;9518;51.720;14.384;2024-02-23T10:54:31;9.60;77.30
18779;DHT22;9518;51.720;14.384;2024-02-23T10:56:58;9.60;78.30
18779;DHT22;9518;51.720;14.384;2024-02-23T10:59:26;9.40;75.20
18779;DHT22;9518;51.720;14.384;2024-02-23T11:01:54;9.30;75.90
18779;DHT22;9518;51.720;14.384;2024-02-23T11:04:26;9.60;75.30
18779;DHT22;9518;51.720;14.384;2024-02-23T11:06:55;9.90;74.80
18779;DHT22;9518;51.720;14.384;2024-02-23T11:09:24;10.10;72.30
18779;DHT22;9518;51.720;14.384;2024-02-23T11:11:55;10.10;71.10
18779;DHT22;9518;51.720;14.384;2024-02-23T11:14:31;10.10;70.80
18779;DHT22;9518;51.720;14.384;2024-02-23T11:16:59;10.40;72.10
18779;DHT22;9518;51.720;14.384;2024-02-23T11:19:35;10.60;70.70
18779;DHT22;9518;51.720;14.384;2024-02-23T11:22:03;10.70;69.80
18779;DHT22;9518;51.720;14.384;2024-02-23T11:24:32;10.70;68.00
18779;DHT22;9518;51.720;14.384;2024-02-23T11:27:02;10.90;72.00
18779;DHT22;9518;51.720;14.384;2024-02-23T11:29:34;10.90;70.80
18779;DHT22;9518;51.720;14.384;2024-02-23T11:32:02;10.90;69.10
18779;DHT22;9518;51.720;14.384;2024-02-23T11:34:30;11.00;69.20
18779;DHT22;9518;51.720;14.384;2024-02-23T11:37:07;11.00;69.90
18779;DHT22;9518;51.720;14.384;2024-02-23T11:39:37;11.20;69.70
18779;DHT22;9518;51.720;14.384;2024-02-23T11:42:06;11.40;70.90
18779;DHT22;9518;51.720;14.384;2024-02-23T11:44:34;11.40;67.50
18779;DHT22;9518;51.720;14.384;2024-02-23T11:47:02;11.60;69.70
18779;DHT22;9518;51.720;14.384;2024-02-23T11:49:30;11.80;67.30
18779;DHT22;9518;51.720;14.384;2024-02-23T11:51:58;11.60;67.60
18779;DHT22;9518;51.720;14.384;2024-02-23T11:54:26;11.60;69.10
18779;DHT22;9518;51.720;14.384;2024-02-23T11:56:53;11.50;68.30
18779;DHT22;9518;51.720;14.384;2024-02-23T11:59:20;11.30;70.00
18779;DHT22;9518;51.720;14.384;2024-02-23T12:01:49;11.50;69.50
18779;DHT22;9518;51.720;14.384;2024-02-23T12:04:16;11.60;70.10
18779;DHT22;9518;51.720;14.384;2024-02-23T12:06:44;11.60;70.00
18779;DHT22;9518;51.720;14.384;2024-02-23T12:09:13;11.80;68.70
18779;DHT22;9518;51.720;14.384;2024-02-23T12:11:41;11.90;66.30
18779;DHT22;9518;51.720;14.384;2024-02-23T12:14:08;11.90;65.40
18779;DHT22;9518;51.720;14.384;2024-02-23T12:16:36;11.80;64.00
18779;DHT22;9518;51.720;14.384;2024-02-23T12:19:03;11.60;64.50
18779;DHT22;9518;51.720;14.384;2024-02-23T12:21:30;11.60;67.70
18779;DHT22;9518;51.720;14.384;2024-02-23T12:23:57;11.80;65.80
18779;DHT22;9518;51.720;14.384;2024-02-23T12:26:28;11.90;63.40
18779;DHT22;9518;51.720;14.384;2024-02-23T12:29:00;11.80;62.80
18779;DHT22;9518;51.720;14.384;2024-02-23T12:31:28;11.50;63.30
18779;DHT22;9518;51.720;14.384;2024-02-23T12:33:57;11.40;64.30
18779;DHT22;9518;51.720;14.384;2024-02-23T12:36:24;11.60;66.00
18779;DHT22;9518;51.720;14.384;2024-02-23T12:38:51;11.40;62.90
18779;DHT22;9518;51.720;14.384;2024-02-23T12:41:19;11.60;62.50
18779;DHT22;9518;51.720;14.384;2024-02-23T12:43:47;11.70;62.90
18779;DHT22;9518;51.720;14.384;2024-02-23T12:46:14;11.80;62.40
18779;DHT22;9518;51.720;14.384;2024-02-23T12:48:41;12.10;62.70
18779;DHT22;9518;51.720;14.384;2024-02-23T12:51:09;12.40;63.50
18779;DHT22;9518;51.720;14.384;2024-02-23T12:53:39;12.60;60.00
18779;DHT22;9518;51.720;14.384;2024-02-23T12:56:08;12.50;59.80
18779;DHT22;9518;51.720;14.384;2024-02-23T12:58:35;12.70;63.00
18779;DHT22;9518;51.720;14.384;2024-02-23T13:01:04;13.20;62.20
18779;DHT22;9518;51.720;14.384;2024-02-23T13:03:32;13.50;59.20
18779;DHT22;9518;51.720;14.384;2024-02-23T13:06:00;13.70;61.20
18779;DHT22;9518;51.720;14.384;2024-02-23T13:08:28;13.80;57.30
18779;DHT22;9518;51.720;14.384;2024-02-23T13:10:56;13.90;57.90
18779;DHT22;9518;51.720;14.384;2024-02-23T13:13:24;14.20;58.20
18779;DHT22;9518;51.720;14.384;2024-02-23T13:15:53;14.40;57.20
18779;DHT22;9518;51.720;14.384;2024-02-23T13:18:21;14.60;57.40
18779;DHT22;9518;51.720;14.384;2024-02-23T13:20:49;14.60;54.50
18779;DHT22;9518;51.720;14.384;2024-02-23T13:23:18;14.70;57.30
18779;DHT22;9518;51.720;14.384;2024-02-23T13:25:45;14.70;56.60
18779;DHT22;9518;51.720;14.384;2024-02-23T13:28:13;15.10;53.20
18779;DHT22;9518;51.720;14.384;2024-02-23T13:30:41;14.80;54.70
18779;DHT22;9518;51.720;14.384;2024-02-23T13:33:10;14.80;54.50
18779;DHT22;9518;51.720;14.384;2024-02-23T13:35:39;13.90;53.80
18779;DHT22;9518;51.720;14.384;2024-02-23T13:38:06;13.30;57.30
18779;DHT22;9518;51.720;14.384;2024-02-23T13:40:34;13.30;58.60
18779;DHT22;9518;51.720;14.384;2024-02-23T13:43:01;13.40;59.50
18779;DHT22;9518;51.720;14.384;2024-02-23T13:45:29;13.70;59.10
18779;DHT22;9518;51.720;14.384;2024-02-23T13:47:57;13.50;57.00
18779;DHT22;9518;51.720;14.384;2024-02-23T13:50:26;13.50;57.90
18779;DHT22;9518;51.720;14.384;2024-02-23T13:52:55;13.40;58.90
18779;DHT22;9518;51.720;14.384;2024-02-23T13:55:22;13.40;58.90
18779;DHT22;9518;51.720;14.384;2024-02-23T13:57:49;13.20;57.00
18779;DHT22;9518;51.720;14.384;2024-02-23T14:00:17;12.50;58.30
18779;DHT22;9518;51.720;14.384;2024-02-23T14:02:45;11.90;60.60
18779;DHT22;9518;51.720;14.384;2024-02-23T14:05:12;12.00;62.70
18779;DHT22;9518;51.720;14.384;2024-02-23T14:07:40;12.60;61.30
18779;DHT22;9518;51.720;14.384;2024-02-23T14:10:09;13.20;61.30
18779;DHT22;9518;51.720;14.384;2024-02-23T14:12:36;14.00;61.60
18779;DHT22;9518;51.720;14.384;2024-02-23T14:15:05;15.00;62.10
18779;DHT22;9518;51.720;14.384;2024-02-23T14:17:32;16.10;57.20
18779;DHT22;9518;51.720;14.384;2024-02-23T14:20:00;16.80;52.10
18779;DHT22;9518;51.720;14.384;2024-02-23T14:22:27;16.00;53.10
18779;DHT22;9518;51.720;14.384;2024-02-23T14:24:54;14.80;53.10
18779;DHT22;9518;51.720;14.384;2024-02-23T14:27:24;14.20;53.50
18779;DHT22;9518;51.720;14.384;2024-02-23T14:29:52;14.30;54.00
18779;DHT22;9518;51.720;14.384;2024-02-23T14:32:19;14.20;53.30
18779;DHT22;9518;51.720;14.384;2024-02-23T14:34:47;13.60;54.00
18779;DHT22;9518;51.720;14.384;2024-02-23T14:37:15;13.10;54.90
18779;DHT22;9518;51.720;14.384;2024-02-23T14:39:42;12.80;56.20
18779;DHT22;9518;51.720;14.384;2024-02-23T14:42:09;12.40;54.80
18779;DHT22;9518;51.720;14.384;2024-02-23T14:44:38;12.50;54.20
18779;DHT22;9518;51.720;14.384;2024-02-23T14:47:07;12.40;55.40
18779;DHT22;9518;51.720;14.384;2024-02-23T14:49:34;12.60;54.60
18779;DHT22;9518;51.720;14.384;2024-02-23T14:52:01;12.40;55.10
18779;DHT22;9518;51.720;14.384;2024-02-23T14:54:28;12.00;54.10
18779;DHT22;9518;51.720;14.384;2024-02-23T14:56:56;11.60;53.70
18779;DHT22;9518;51.720;14.384;2024-02-23T14:59:23;11.30;55.90
18779;DHT22;9518;51.720;14.384;2024-02-23T15:01:51;10.90;56.60
18779;DHT22;9518;51.720;14.384;2024-02-23T15:04:18;10.70;58.20
18779;DHT22;9518;51.720;14.384;2024-02-23T15:06:45;10.50;59.80
18779;DHT22;9518;51.720;14.384;2024-02-23T15:09:13;10.40;58.80
18779;DHT22;9518;51.720;14.384;2024-02-23T15:11:41;10.30;58.60
18779;DHT22;9518;51.720;14.384;2024-02-23T15:14:08;10.30;60.20
18779;DHT22;9518;51.720;14.384;2024-02-23T15:16:35;10.30;60.20
18779;DHT22;9518;51.720;14.384;2024-02-23T15:19:04;10.20;59.70
18779;DHT22;9518;51.720;14.384;2024-02-23T15:21:33;10.30;59.90
18779;DHT22;9518;51.720;14.384;2024-02-23T15:24:06;10.30;60.40
18779;DHT22;9518;51.720;14.384;2024-02-23T15:26:33;10.20;60.10
18779;DHT22;9518;51.720;14.384;2024-02-23T15:29:00;10.10;61.60
18779;DHT22;9518;51.720;14.384;2024-02-23T15:31:28;10.00;60.40
18779;DHT22;9518;51.720;14.384;2024-02-23T15:33:55;9.90;62.60
18779;DHT22;9518;51.720;14.384;2024-02-23T15:36:26;9.80;63.30
18779;DHT22;9518;51.720;14.384;2024-02-23T15:38:53;9.80;63.40